sensor_id;sensor_type;location;lat;lon;timestamp;P1;durP1;ratioP1;P2;durP2;ratioP2
54977;SDS011;40873;47.522;19.106;2023-11-21T00:00:16;17.55;;;8.98;;
54977;SDS011;40873;47.522;19.106;2023-11-21T00:03:03;15.93;;;8.68;;
54977;SDS011;40873;47.522;19.106;2023-11-21T00:05:31;15.20;;;9.13;;
54977;SDS011;40873;47.522;19.106;2023-11-21T00:07:58;14.43;;;8.35;;
54977;SDS011;40873;47.522;19.106;2023-11-21T00:10:25;14.80;;;7.85;;
54977;SDS011;40873;47.522;19.106;2023-11-21T00:12:53;16.08;;;7.85;;
54977;SDS011;40873;47.522;19.106;2023-11-21T00:15:22;15.77;;;8.10;;
54977;SDS011;40873;47.522;19.106;2023-11-21T00:17:48;16.52;;;7.25;;
54977;SDS011;40873;47.522;19.106;2023-11-21T00:20:16;16.58;;;7.88;;
54977;SDS011;40873;47.522;19.106;2023-11-21T00:22:43;14.43;;;7.90;;
54977;SDS011;40873;47.522;19.106;2023-11-21T00:25:10;12.73;;;7.80;;
54977;SDS011;40873;47.522;19.106;2023-11-21T00:27:37;13.05;;;7.78;;
54977;SDS011;40873;47.522;19.106;2023-11-21T00:30:05;16.75;;;8.43;;
54977;SDS011;40873;47.522;19.106;2023-11-21T00:32:35;12.13;;;7.57;;
54977;SDS011;40873;47.522;19.106;2023-11-21T00:35:03;14.32;;;8.57;;
54977;SDS011;40873;47.522;19.106;2023-11-21T00:37:30;14.23;;;7.90;;
54977;SDS011;40873;47.522;19.106;2023-11-21T00:39:59;18.15;;;8.55;;
54977;SDS011;40873;47.522;19.106;2023-11-21T00:42:25;15.77;;;8.68;;
54977;SDS011;40873;47.522;19.106;2023-11-21T00:44:53;14.38;;;7.75;;
54977;SDS011;40873;47.522;19.106;2023-11-21T00:47:19;11.65;;;7.47;;
54977;SDS011;40873;47.522;19.106;2023-11-21T00:49:47;13.25;;;8.05;;
54977;SDS011;40873;47.522;19.106;2023-11-21T00:52:15;15.25;;;8.25;;
54977;SDS011;40873;47.522;19.106;2023-11-21T00:54:43;13.20;;;8.18;;
54977;SDS011;40873;47.522;19.106;2023-11-21T00:57:09;14.38;;;9.13;;
54977;SDS011;40873;47.522;19.106;2023-11-21T00:59:38;15.52;;;8.25;;
54977;SDS011;40873;47.522;19.106;2023-11-21T01:02:05;17.73;;;9.02;;
54977;SDS011;40873;47.522;19.106;2023-11-21T01:04:32;16.95;;;7.70;;
54977;SDS011;40873;47.522;19.106;2023-11-21T01:06:59;15.38;;;8.40;;
54977;SDS011;40873;47.522;19.106;2023-11-21T01:09:26;16.92;;;7.95;;
54977;SDS011;40873;47.522;19.106;2023-11-21T01:11:54;14.75;;;6.72;;
54977;SDS011;40873;47.522;19.106;2023-11-21T01:14:21;16.42;;;8.15;;
54977;SDS011;40873;47.522;19.106;2023-11-21T01:16:48;10.95;;;6.93;;
54977;SDS011;40873;47.522;19.106;2023-11-21T01:19:16;16.27;;;7.70;;
54977;SDS011;40873;47.522;19.106;2023-11-21T01:21:43;12.05;;;7.50;;
54977;SDS011;40873;47.522;19.106;2023-11-21T01:24:10;13.57;;;7.35;;
54977;SDS011;40873;47.522;19.106;2023-11-21T01:26:37;12.80;;;7.45;;
54977;SDS011;40873;47.522;19.106;2023-11-21T01:29:04;11.82;;;7.20;;
54977;SDS011;40873;47.522;19.106;2023-11-21T01:31:31;13.30;;;7.50;;
54977;SDS011;40873;47.522;19.106;2023-11-21T01:33:58;14.77;;;7.90;;
54977;SDS011;40873;47.522;19.106;2023-11-21T01:36:32;14.23;;;8.52;;
54977;SDS011;40873;47.522;19.106;2023-11-21T01:38:59;13.63;;;6.93;;
54977;SDS011;40873;47.522;19.106;2023-11-21T01:41:29;18.67;;;7.88;;
54977;SDS011;40873;47.522;19.106;2023-11-21T01:43:57;11.60;;;7.25;;
54977;SDS011;40873;47.522;19.106;2023-11-21T01:46:24;13.00;;;7.72;;
54977;SDS011;40873;47.522;19.106;2023-11-21T01:48:51;11.90;;;7.55;;
54977;SDS011;40873;47.522;19.106;2023-11-21T01:51:19;14.10;;;7.97;;
54977;SDS011;40873;47.522;19.106;2023-11-21T01:53:47;13.10;;;7.88;;
54977;SDS011;40873;47.522;19.106;2023-11-21T01:56:14;14.43;;;7.47;;
54977;SDS011;40873;47.522;19.106;2023-11-21T01:58:41;12.48;;;7.32;;
54977;SDS011;40873;47.522;19.106;2023-11-21T02:01:09;12.90;;;7.63;;
54977;SDS011;40873;47.522;19.106;2023-11-21T02:03:36;13.68;;;7.65;;
54977;SDS011;40873;47.522;19.106;2023-11-21T02:06:03;14.45;;;8.40;;
54977;SDS011;40873;47.522;19.106;2023-11-21T02:08:32;13.40;;;7.28;;
54977;SDS011;40873;47.522;19.106;2023-11-21T02:10:59;13.73;;;7.22;;
54977;SDS011;40873;47.522;19.106;2023-11-21T02:13:26;14.27;;;7.82;;
54977;SDS011;40873;47.522;19.106;2023-11-21T02:15:53;13.05;;;7.13;;
54977;SDS011;40873;47.522;19.106;2023-11-21T02:18:21;14.80;;;7.25;;
54977;SDS011;40873;47.522;19.106;2023-11-21T02:20:48;12.95;;;7.47;;
54977;SDS011;40873;47.522;19.106;2023-11-21T02:23:15;17.58;;;8.85;;
54977;SDS011;40873;47.522;19.106;2023-11-21T02:25:42;15.15;;;8.32;;
54977;SDS011;40873;47.522;19.106;2023-11-21T02:28:10;16.17;;;8.23;;
54977;SDS011;40873;47.522;19.106;2023-11-21T02:30:39;17.42;;;8.68;;
54977;SDS011;40873;47.522;19.106;2023-11-21T02:33:06;16.48;;;7.22;;
54977;SDS011;40873;47.522;19.106;2023-11-21T02:35:34;12.98;;;7.18;;
54977;SDS011;40873;47.522;19.106;2023-11-21T02:38:02;14.40;;;7.20;;
54977;SDS011;40873;47.522;19.106;2023-11-21T02:40:29;14.43;;;7.57;;
54977;SDS011;40873;47.522;19.106;2023-11-21T02:42:59;11.95;;;7.70;;
54977;SDS011;40873;47.522;19.106;2023-11-21T13:25:54;18.83;;;7.22;;
54977;SDS011;40873;47.522;19.106;2023-11-21T13:28:32;20.48;;;7.30;;
54977;SDS011;40873;47.522;19.106;2023-11-21T13:31:01;16.08;;;8.02;;
54977;SDS011;40873;47.522;19.106;2023-11-21T13:33:40;16.75;;;7.78;;
54977;SDS011;40873;47.522;19.106;2023-11-21T13:36:09;13.70;;;7.15;;
54977;SDS011;40873;47.522;19.106;2023-11-21T13:38:37;14.27;;;7.70;;
54977;SDS011;40873;47.522;19.106;2023-11-21T13:41:11;13.27;;;6.90;;
54977;SDS011;40873;47.522;19.106;2023-11-21T13:43:41;13.02;;;7.10;;
54977;SDS011;40873;47.522;19.106;2023-11-21T13:46:10;20.73;;;7.97;;
54977;SDS011;40873;47.522;19.106;2023-11-21T13:48:43;17.17;;;6.80;;
54977;SDS011;40873;47.522;19.106;2023-11-21T13:51:17;18.77;;;7.93;;
54977;SDS011;40873;47.522;19.106;2023-11-21T13:53:48;14.32;;;7.30;;
54977;SDS011;40873;47.522;19.106;2023-11-21T13:56:17;15.77;;;7.05;;
54977;SDS011;40873;47.522;19.106;2023-11-21T14:01:19;15.98;;;6.60;;
54977;SDS011;40873;47.522;19.106;2023-11-21T14:03:50;9.45;;;5.38;;
54977;SDS011;40873;47.522;19.106;2023-11-21T14:06:23;10.10;;;5.13;;
54977;SDS011;40873;47.522;19.106;2023-11-21T14:08:59;8.63;;;4.85;;
54977;SDS011;40873;47.522;19.106;2023-11-21T14:11:31;8.70;;;3.80;;
54977;SDS011;40873;47.522;19.106;2023-11-21T14:14:08;12.02;;;4.38;;
54977;SDS011;40873;47.522;19.106;2023-11-21T14:16:36;6.93;;;3.95;;
54977;SDS011;40873;47.522;19.106;2023-11-21T14:19:03;10.43;;;3.97;;
54977;SDS011;40873;47.522;19.106;2023-11-21T14:21:45;11.00;;;3.92;;
54977;SDS011;40873;47.522;19.106;2023-11-21T14:24:14;9.63;;;3.70;;
54977;SDS011;40873;47.522;19.106;2023-11-21T14:26:45;11.30;;;3.78;;
54977;SDS011;40873;47.522;19.106;2023-11-21T14:29:13;7.88;;;4.25;;
54977;SDS011;40873;47.522;19.106;2023-11-21T14:31:44;12.02;;;3.85;;
54977;SDS011;40873;47.522;19.106;2023-11-21T14:34:11;8.40;;;3.65;;
54977;SDS011;40873;47.522;19.106;2023-11-21T14:36:38;8.93;;;3.10;;
54977;SDS011;40873;47.522;19.106;2023-11-21T14:39:09;7.70;;;3.30;;
54977;SDS011;40873;47.522;19.106;2023-11-21T14:41:49;7.88;;;3.28;;
54977;SDS011;40873;47.522;19.106;2023-11-21T14:44:17;6.30;;;3.00;;
54977;SDS011;40873;47.522;19.106;2023-11-21T14:46:44;5.88;;;2.85;;
54977;SDS011;40873;47.522;19.106;2023-11-21T14:49:13;16.65;;;3.78;;
54977;SDS011;40873;47.522;19.106;2023-11-21T14:51:51;6.82;;;2.58;;
54977;SDS011;40873;47.522;19.106;2023-11-21T14:54:30;9.63;;;3.33;;
54977;SDS011;40873;47.522;19.106;2023-11-21T14:57:11;8.65;;;3.35;;
54977;SDS011;40873;47.522;19.106;2023-11-21T14:59:43;9.23;;;3.85;;
54977;SDS011;40873;47.522;19.106;2023-11-21T15:02:17;9.30;;;3.80;;
54977;SDS011;40873;47.522;19.106;2023-11-21T15:04:49;6.93;;;3.92;;
54977;SDS011;40873;47.522;19.106;2023-11-21T15:07:25;10.35;;;3.50;;
54977;SDS011;40873;47.522;19.106;2023-11-21T15:09:54;12.32;;;3.20;;
54977;SDS011;40873;47.522;19.106;2023-11-21T15:12:21;7.05;;;3.10;;
54977;SDS011;40873;47.522;19.106;2023-11-21T15:14:53;7.43;;;3.35;;
54977;SDS011;40873;47.522;19.106;2023-11-21T15:17:21;7.47;;;4.20;;
54977;SDS011;40873;47.522;19.106;2023-11-21T15:19:50;8.65;;;3.25;;
54977;SDS011;40873;47.522;19.106;2023-11-21T15:22:17;10.93;;;3.88;;
54977;SDS011;40873;47.522;19.106;2023-11-21T15:24:44;12.80;;;3.83;;
54977;SDS011;40873;47.522;19.106;2023-11-21T15:27:14;9.60;;;3.33;;
54977;SDS011;40873;47.522;19.106;2023-11-21T15:29:42;7.38;;;3.88;;
54977;SDS011;40873;47.522;19.106;2023-11-21T15:32:10;9.18;;;3.60;;
54977;SDS011;40873;47.522;19.106;2023-11-21T15:34:38;14.15;;;4.32;;
54977;SDS011;40873;47.522;19.106;2023-11-21T15:37:06;11.32;;;4.63;;
54977;SDS011;40873;47.522;19.106;2023-11-21T15:39:38;11.95;;;4.55;;
54977;SDS011;40873;47.522;19.106;2023-11-21T15:42:06;9.50;;;4.05;;
54977;SDS011;40873;47.522;19.106;2023-11-21T15:44:34;10.38;;;5.95;;
54977;SDS011;40873;47.522;19.106;2023-11-21T15:47:01;9.35;;;4.72;;
54977;SDS011;40873;47.522;19.106;2023-11-21T15:49:31;11.88;;;5.63;;
54977;SDS011;40873;47.522;19.106;2023-11-21T15:52:02;9.95;;;5.35;;
54977;SDS011;40873;47.522;19.106;2023-11-21T15:54:33;14.82;;;7.15;;
54977;SDS011;40873;47.522;19.106;2023-11-21T15:57:01;14.00;;;7.40;;
54977;SDS011;40873;47.522;19.106;2023-11-21T15:59:31;17.23;;;8.20;;
54977;SDS011;40873;47.522;19.106;2023-11-21T16:02:00;14.27;;;7.28;;
54977;SDS011;40873;47.522;19.106;2023-11-21T16:04:27;15.68;;;8.48;;
54977;SDS011;40873;47.522;19.106;2023-11-21T16:06:55;15.32;;;7.97;;
54977;SDS011;40873;47.522;19.106;2023-11-21T16:09:22;13.63;;;6.72;;
54977;SDS011;40873;47.522;19.106;2023-11-21T16:11:58;18.02;;;8.63;;
54977;SDS011;40873;47.522;19.106;2023-11-21T16:14:30;22.88;;;9.40;;
54977;SDS011;40873;47.522;19.106;2023-11-21T16:17:02;17.70;;;8.23;;
54977;SDS011;40873;47.522;19.106;2023-11-21T16:19:30;17.65;;;8.43;;
54977;SDS011;40873;47.522;19.106;2023-11-21T16:21:57;23.67;;;8.20;;
54977;SDS011;40873;47.522;19.106;2023-11-21T16:24:25;18.42;;;8.63;;
54977;SDS011;40873;47.522;19.106;2023-11-21T16:26:54;17.98;;;8.35;;
54977;SDS011;40873;47.522;19.106;2023-11-21T16:29:25;15.75;;;8.73;;
54977;SDS011;40873;47.522;19.106;2023-11-21T16:31:53;23.08;;;10.43;;
54977;SDS011;40873;47.522;19.106;2023-11-21T16:34:21;22.35;;;10.68;;
54977;SDS011;40873;47.522;19.106;2023-11-21T16:36:48;21.08;;;10.93;;
54977;SDS011;40873;47.522;19.106;2023-11-21T16:39:16;18.90;;;9.68;;
54977;SDS011;40873;47.522;19.106;2023-11-21T16:41:46;20.98;;;9.40;;
54977;SDS011;40873;47.522;19.106;2023-11-21T16:44:19;17.60;;;10.02;;
54977;SDS011;40873;47.522;19.106;2023-11-21T16:46:48;21.65;;;10.02;;
54977;SDS011;40873;47.522;19.106;2023-11-21T16:49:17;18.20;;;7.97;;
54977;SDS011;40873;47.522;19.106;2023-11-21T16:51:44;11.75;;;7.40;;
54977;SDS011;40873;47.522;19.106;2023-11-21T16:54:12;16.80;;;7.78;;
54977;SDS011;40873;47.522;19.106;2023-11-21T16:56:40;15.68;;;7.30;;
54977;SDS011;40873;47.522;19.106;2023-11-21T16:59:07;16.02;;;7.18;;
54977;SDS011;40873;47.522;19.106;2023-11-21T17:01:35;15.77;;;7.20;;
54977;SDS011;40873;47.522;19.106;2023-11-21T17:04:05;22.02;;;6.78;;
54977;SDS011;40873;47.522;19.106;2023-11-21T17:06:35;11.95;;;5.88;;
54977;SDS011;40873;47.522;19.106;2023-11-21T17:09:03;12.68;;;6.22;;
54977;SDS011;40873;47.522;19.106;2023-11-21T17:11:30;15.07;;;6.07;;
54977;SDS011;40873;47.522;19.106;2023-11-21T17:13:58;10.77;;;5.60;;
54977;SDS011;40873;47.522;19.106;2023-11-21T17:16:25;10.23;;;5.78;;
54977;SDS011;40873;47.522;19.106;2023-11-21T17:18:52;11.50;;;5.93;;
54977;SDS011;40873;47.522;19.106;2023-11-21T17:21:19;10.32;;;5.93;;
54977;SDS011;40873;47.522;19.106;2023-11-21T17:23:55;9.85;;;5.68;;
54977;SDS011;40873;47.522;19.106;2023-11-21T17:26:25;11.95;;;6.45;;
54977;SDS011;40873;47.522;19.106;2023-11-21T17:28:52;17.83;;;6.57;;
54977;SDS011;40873;47.522;19.106;2023-11-21T17:31:20;11.77;;;6.53;;
54977;SDS011;40873;47.522;19.106;2023-11-21T17:33:49;15.43;;;7.75;;
54977;SDS011;40873;47.522;19.106;2023-11-21T17:36:16;13.38;;;6.40;;
54977;SDS011;40873;47.522;19.106;2023-11-21T17:38:43;11.77;;;6.45;;
54977;SDS011;40873;47.522;19.106;2023-11-21T17:41:11;8.68;;;6.05;;
54977;SDS011;40873;47.522;19.106;2023-11-21T17:43:39;12.32;;;6.57;;
54977;SDS011;40873;47.522;19.106;2023-11-21T17:46:08;12.10;;;6.65;;
54977;SDS011;40873;47.522;19.106;2023-11-21T17:48:35;13.43;;;6.72;;
54977;SDS011;40873;47.522;19.106;2023-11-21T17:51:04;11.52;;;6.60;;
54977;SDS011;40873;47.522;19.106;2023-11-21T17:53:32;15.32;;;7.90;;
54977;SDS011;40873;47.522;19.106;2023-11-21T17:55:59;18.95;;;8.18;;
54977;SDS011;40873;47.522;19.106;2023-11-21T17:58:26;17.75;;;8.52;;
54977;SDS011;40873;47.522;19.106;2023-11-21T18:00:54;17.27;;;9.07;;
54977;SDS011;40873;47.522;19.106;2023-11-21T18:03:22;17.75;;;9.10;;
54977;SDS011;40873;47.522;19.106;2023-11-21T18:05:52;17.73;;;8.98;;
54977;SDS011;40873;47.522;19.106;2023-11-21T18:08:20;24.05;;;10.50;;
54977;SDS011;40873;47.522;19.106;2023-11-21T18:10:47;22.20;;;10.43;;
54977;SDS011;40873;47.522;19.106;2023-11-21T18:13:15;17.20;;;9.93;;
54977;SDS011;40873;47.522;19.106;2023-11-21T18:15:42;21.38;;;9.68;;
54977;SDS011;40873;47.522;19.106;2023-11-21T18:18:09;19.85;;;9.75;;
54977;SDS011;40873;47.522;19.106;2023-11-21T18:20:36;23.40;;;10.35;;
54977;SDS011;40873;47.522;19.106;2023-11-21T18:23:04;19.52;;;10.18;;
54977;SDS011;40873;47.522;19.106;2023-11-21T18:25:31;19.73;;;11.60;;
54977;SDS011;40873;47.522;19.106;2023-11-21T18:27:58;23.75;;;11.35;;
54977;SDS011;40873;47.522;19.106;2023-11-21T18:30:25;21.17;;;11.02;;
54977;SDS011;40873;47.522;19.106;2023-11-21T18:32:53;19.88;;;11.57;;
54977;SDS011;40873;47.522;19.106;2023-11-21T18:35:20;29.98;;;14.00;;
54977;SDS011;40873;47.522;19.106;2023-11-21T18:37:47;22.17;;;13.32;;
54977;SDS011;40873;47.522;19.106;2023-11-21T18:40:14;25.10;;;13.27;;
54977;SDS011;40873;47.522;19.106;2023-11-21T18:42:42;20.27;;;12.90;;
54977;SDS011;40873;47.522;19.106;2023-11-21T18:45:12;28.92;;;13.23;;
54977;SDS011;40873;47.522;19.106;2023-11-21T18:47:39;22.02;;;13.48;;
54977;SDS011;40873;47.522;19.106;2023-11-21T18:50:07;25.50;;;14.25;;
54977;SDS011;40873;47.522;19.106;2023-11-21T18:52:40;26.02;;;13.77;;
54977;SDS011;40873;47.522;19.106;2023-11-21T18:55:07;24.95;;;13.68;;
54977;SDS011;40873;47.522;19.106;2023-11-21T18:57:34;24.35;;;14.00;;
54977;SDS011;40873;47.522;19.106;2023-11-21T19:00:01;26.67;;;15.40;;
54977;SDS011;40873;47.522;19.106;2023-11-21T19:02:30;24.00;;;14.63;;
54977;SDS011;40873;47.522;19.106;2023-11-21T19:04:57;28.98;;;15.30;;
54977;SDS011;40873;47.522;19.106;2023-11-21T19:07:26;30.52;;;14.88;;
54977;SDS011;40873;47.522;19.106;2023-11-21T19:09:56;25.95;;;14.45;;
54977;SDS011;40873;47.522;19.106;2023-11-21T19:12:23;27.33;;;14.57;;
54977;SDS011;40873;47.522;19.106;2023-11-21T19:14:50;29.58;;;14.88;;
54977;SDS011;40873;47.522;19.106;2023-11-21T19:17:18;24.45;;;14.60;;
54977;SDS011;40873;47.522;19.106;2023-11-21T19:19:46;26.52;;;15.30;;
54977;SDS011;40873;47.522;19.106;2023-11-21T19:22:14;21.67;;;13.45;;
54977;SDS011;40873;47.522;19.106;2023-11-21T19:24:41;29.33;;;14.90;;
54977;SDS011;40873;47.522;19.106;2023-11-21T19:27:10;24.17;;;15.23;;
54977;SDS011;40873;47.522;19.106;2023-11-21T19:29:37;22.38;;;13.95;;
54977;SDS011;40873;47.522;19.106;2023-11-21T19:32:06;27.52;;;13.75;;
54977;SDS011;40873;47.522;19.106;2023-11-21T19:34:34;23.77;;;13.95;;
54977;SDS011;40873;47.522;19.106;2023-11-21T19:37:01;28.95;;;13.68;;
54977;SDS011;40873;47.522;19.106;2023-11-21T19:39:30;25.00;;;12.57;;
54977;SDS011;40873;47.522;19.106;2023-11-21T19:42:00;24.55;;;14.13;;
54977;SDS011;40873;47.522;19.106;2023-11-21T19:44:27;26.25;;;12.93;;
54977;SDS011;40873;47.522;19.106;2023-11-21T19:46:54;21.65;;;12.25;;
54977;SDS011;40873;47.522;19.106;2023-11-21T19:49:22;25.05;;;13.50;;
54977;SDS011;40873;47.522;19.106;2023-11-21T19:51:49;26.40;;;13.43;;
54977;SDS011;40873;47.522;19.106;2023-11-21T19:54:18;19.88;;;11.95;;
54977;SDS011;40873;47.522;19.106;2023-11-21T19:56:46;20.75;;;12.75;;
54977;SDS011;40873;47.522;19.106;2023-11-21T19:59:13;23.65;;;13.00;;
54977;SDS011;40873;47.522;19.106;2023-11-21T20:01:42;23.67;;;14.07;;
54977;SDS011;40873;47.522;19.106;2023-11-21T20:04:09;25.73;;;14.02;;
54977;SDS011;40873;47.522;19.106;2023-11-21T20:06:39;22.90;;;13.40;;
54977;SDS011;40873;47.522;19.106;2023-11-21T20:09:16;26.65;;;13.77;;
54977;SDS011;40873;47.522;19.106;2023-11-21T20:11:43;24.92;;;13.95;;
54977;SDS011;40873;47.522;19.106;2023-11-21T20:14:13;26.33;;;15.02;;
54977;SDS011;40873;47.522;19.106;2023-11-21T20:16:40;29.30;;;15.15;;
54977;SDS011;40873;47.522;19.106;2023-11-21T20:19:07;26.20;;;15.70;;
54977;SDS011;40873;47.522;19.106;2023-11-21T20:21:35;28.65;;;15.98;;
54977;SDS011;40873;47.522;19.106;2023-11-21T20:24:01;28.65;;;16.77;;
54977;SDS011;40873;47.522;19.106;2023-11-21T20:26:29;25.92;;;14.82;;
54977;SDS011;40873;47.522;19.106;2023-11-21T20:28:57;26.25;;;15.18;;
54977;SDS011;40873;47.522;19.106;2023-11-21T20:31:25;30.17;;;16.45;;
54977;SDS011;40873;47.522;19.106;2023-11-21T20:33:52;29.40;;;15.00;;
54977;SDS011;40873;47.522;19.106;2023-11-21T20:36:19;27.42;;;14.25;;
54977;SDS011;40873;47.522;19.106;2023-11-21T20:38:46;22.30;;;13.40;;
54977;SDS011;40873;47.522;19.106;2023-11-21T20:41:14;25.63;;;13.43;;
54977;SDS011;40873;47.522;19.106;2023-11-21T20:43:41;23.98;;;13.30;;
54977;SDS011;40873;47.522;19.106;2023-11-21T20:46:08;22.95;;;12.93;;
54977;SDS011;40873;47.522;19.106;2023-11-21T20:48:35;22.25;;;13.10;;
54977;SDS011;40873;47.522;19.106;2023-11-21T20:51:03;31.13;;;13.40;;
54977;SDS011;40873;47.522;19.106;2023-11-21T20:53:30;22.38;;;12.65;;
54977;SDS011;40873;47.522;19.106;2023-11-21T20:55:59;22.85;;;12.93;;
54977;SDS011;40873;47.522;19.106;2023-11-21T20:58:28;22.30;;;13.40;;
54977;SDS011;40873;47.522;19.106;2023-11-21T21:00:55;22.88;;;12.48;;
54977;SDS011;40873;47.522;19.106;2023-11-21T21:03:22;19.30;;;12.85;;
54977;SDS011;40873;47.522;19.106;2023-11-21T21:05:51;22.17;;;12.63;;
54977;SDS011;40873;47.522;19.106;2023-11-21T21:08:18;22.45;;;13.20;;
54977;SDS011;40873;47.522;19.106;2023-11-21T21:10:46;22.88;;;13.77;;
54977;SDS011;40873;47.522;19.106;2023-11-21T21:13:13;24.73;;;12.85;;
54977;SDS011;40873;47.522;19.106;2023-11-21T21:15:40;23.08;;;12.63;;
54977;SDS011;40873;47.522;19.106;2023-11-21T21:18:07;21.95;;;13.43;;
54977;SDS011;40873;47.522;19.106;2023-11-21T21:20:35;20.08;;;12.23;;
54977;SDS011;40873;47.522;19.106;2023-11-21T21:23:02;21.25;;;13.05;;
54977;SDS011;40873;47.522;19.106;2023-11-21T21:25:30;22.75;;;12.55;;
54977;SDS011;40873;47.522;19.106;2023-11-21T21:27:59;24.20;;;13.23;;
54977;SDS011;40873;47.522;19.106;2023-11-21T21:30:26;24.75;;;14.40;;
54977;SDS011;40873;47.522;19.106;2023-11-21T21:32:54;25.75;;;13.43;;
54977;SDS011;40873;47.522;19.106;2023-11-21T21:35:27;26.48;;;13.98;;
54977;SDS011;40873;47.522;19.106;2023-11-21T21:37:55;22.92;;;13.93;;
54977;SDS011;40873;47.522;19.106;2023-11-21T21:40:26;28.23;;;14.77;;
54977;SDS011;40873;47.522;19.106;2023-11-21T21:42:54;27.52;;;15.65;;
54977;SDS011;40873;47.522;19.106;2023-11-21T21:45:23;24.38;;;13.88;;
54977;SDS011;40873;47.522;19.106;2023-11-21T21:47:52;27.95;;;15.40;;
54977;SDS011;40873;47.522;19.106;2023-11-21T21:50:20;28.88;;;16.73;;
54977;SDS011;40873;47.522;19.106;2023-11-21T21:52:47;28.90;;;16.67;;
54977;SDS011;40873;47.522;19.106;2023-11-21T21:55:14;28.15;;;16.27;;
54977;SDS011;40873;47.522;19.106;2023-11-21T21:57:42;27.40;;;15.00;;
54977;SDS011;40873;47.522;19.106;2023-11-21T22:00:13;28.02;;;16.92;;
54977;SDS011;40873;47.522;19.106;2023-11-21T22:02:41;25.63;;;16.05;;
54977;SDS011;40873;47.522;19.106;2023-11-21T22:05:09;28.40;;;15.80;;
54977;SDS011;40873;47.522;19.106;2023-11-21T22:07:39;30.55;;;15.82;;
54977;SDS011;40873;47.522;19.106;2023-11-21T22:10:07;29.25;;;15.55;;
54977;SDS011;40873;47.522;19.106;2023-11-21T22:12:34;32.50;;;15.98;;
54977;SDS011;40873;47.522;19.106;2023-11-21T22:15:02;29.08;;;14.70;;
54977;SDS011;40873;47.522;19.106;2023-11-21T22:17:31;30.63;;;15.55;;
54977;SDS011;40873;47.522;19.106;2023-11-21T22:19:59;31.63;;;15.70;;
54977;SDS011;40873;47.522;19.106;2023-11-21T22:22:26;26.98;;;16.15;;
54977;SDS011;40873;47.522;19.106;2023-11-21T22:24:53;29.27;;;16.15;;
54977;SDS011;40873;47.522;19.106;2023-11-21T22:27:20;27.42;;;16.80;;
54977;SDS011;40873;47.522;19.106;2023-11-21T22:29:48;26.35;;;15.23;;
54977;SDS011;40873;47.522;19.106;2023-11-21T22:32:15;32.05;;;16.58;;
54977;SDS011;40873;47.522;19.106;2023-11-21T22:34:43;23.10;;;14.90;;
54977;SDS011;40873;47.522;19.106;2023-11-21T22:37:09;29.77;;;16.20;;
54977;SDS011;40873;47.522;19.106;2023-11-21T22:39:37;29.20;;;15.85;;
54977;SDS011;40873;47.522;19.106;2023-11-21T22:42:05;26.83;;;15.57;;
54977;SDS011;40873;47.522;19.106;2023-11-21T22:44:33;25.23;;;15.40;;
54977;SDS011;40873;47.522;19.106;2023-11-21T22:47:00;26.48;;;15.48;;
54977;SDS011;40873;47.522;19.106;2023-11-21T22:49:28;25.85;;;16.08;;
54977;SDS011;40873;47.522;19.106;2023-11-21T22:51:58;28.73;;;14.98;;
54977;SDS011;40873;47.522;19.106;2023-11-21T22:54:26;29.90;;;14.95;;
54977;SDS011;40873;47.522;19.106;2023-11-21T22:56:53;24.95;;;15.07;;
54977;SDS011;40873;47.522;19.106;2023-11-21T22:59:21;30.77;;;16.00;;
54977;SDS011;40873;47.522;19.106;2023-11-21T23:01:49;26.90;;;14.75;;
54977;SDS011;40873;47.522;19.106;2023-11-21T23:04:17;27.92;;;15.35;;
54977;SDS011;40873;47.522;19.106;2023-11-21T23:06:45;30.98;;;15.88;;
54977;SDS011;40873;47.522;19.106;2023-11-21T23:09:14;27.27;;;14.13;;
54977;SDS011;40873;47.522;19.106;2023-11-21T23:11:46;25.88;;;15.52;;
54977;SDS011;40873;47.522;19.106;2023-11-21T23:14:13;26.88;;;15.40;;
54977;SDS011;40873;47.522;19.106;2023-11-21T23:16:40;27.95;;;15.77;;
54977;SDS011;40873;47.522;19.106;2023-11-21T23:19:07;27.77;;;14.20;;
54977;SDS011;40873;47.522;19.106;2023-11-21T23:21:41;24.50;;;14.35;;
54977;SDS011;40873;47.522;19.106;2023-11-21T23:24:19;28.85;;;14.93;;
54977;SDS011;40873;47.522;19.106;2023-11-21T23:26:47;26.38;;;15.02;;
54977;SDS011;40873;47.522;19.106;2023-11-21T23:29:14;24.63;;;14.35;;
54977;SDS011;40873;47.522;19.106;2023-11-21T23:31:42;25.45;;;16.05;;
54977;SDS011;40873;47.522;19.106;2023-11-21T23:34:10;24.05;;;14.23;;
54977;SDS011;40873;47.522;19.106;2023-11-21T23:36:38;28.73;;;14.73;;
54977;SDS011;40873;47.522;19.106;2023-11-21T23:39:06;21.13;;;13.00;;
54977;SDS011;40873;47.522;19.106;2023-11-21T23:41:36;26.25;;;14.95;;
54977;SDS011;40873;47.522;19.106;2023-11-21T23:44:03;25.15;;;14.77;;
54977;SDS011;40873;47.522;19.106;2023-11-21T23:46:34;27.55;;;15.13;;
54977;SDS011;40873;47.522;19.106;2023-11-21T23:49:02;23.92;;;15.05;;
54977;SDS011;40873;47.522;19.106;2023-11-21T23:51:31;25.00;;;14.68;;
54977;SDS011;40873;47.522;19.106;2023-11-21T23:53:59;30.40;;;15.43;;
54977;SDS011;40873;47.522;19.106;2023-11-21T23:56:26;24.98;;;14.60;;
54977;SDS011;40873;47.522;19.106;2023-11-21T23:58:53;33.28;;;16.38;;
